Time;durP1;ratioP1;P1;durP2;ratioP2;P2;SDS_P1;SDS_P2;PMS_P1;PMS_P2;Temp;Humidity;BMP_temperature;BMP_pressure;BME280_temperature;BME280_humidity;BME280_pressure;Samples;Min_cycle;Max_cycle;Signal;HPM_P1;HPM_P2
2022/04/10 00:02:16;;;;;;;12.83;1.80;;;2.70;99.90;;;;;;5037518;28;20197;-84
2022/04/10 00:04:42;;;;;;;7.30;2.20;;;2.70;99.90;;;;;;5037336;28;20290;-84
2022/04/10 00:07:08;;;;;;;6.20;2.00;;;2.70;99.90;;;;;;5037151;28;20208;-84
2022/04/10 00:09:34;;;;;;;6.40;2.00;;;2.70;99.90;;;;;;5036909;28;20197;-84
2022/04/10 00:11:59;;;;;;;8.87;1.90;;;2.60;99.90;;;;;;5036551;28;20669;-84
2022/04/10 00:14:25;;;;;;;10.37;2.30;;;2.60;99.90;;;;;;5036693;28;20169;-84
2022/04/10 00:16:51;;;;;;;5.63;2.40;;;2.50;99.90;;;;;;5036912;28;20666;-84
2022/04/10 00:19:16;;;;;;;9.63;2.40;;;2.60;99.90;;;;;;5036633;28;20564;-84
2022/04/10 00:21:44;;;;;;;10.40;2.07;;;2.60;99.90;;;;;;5036891;28;20188;-85
2022/04/10 00:24:11;;;;;;;6.00;2.00;;;2.60;99.90;;;;;;5036484;28;20180;-84
2022/04/10 00:26:36;;;;;;;7.67;2.30;;;2.60;99.90;;;;;;5036477;28;20210;-85
2022/04/10 00:29:03;;;;;;;15.57;2.73;;;2.60;99.90;;;;;;5036684;28;20196;-86
2022/04/10 00:31:29;;;;;;;9.17;2.50;;;2.60;99.90;;;;;;5036323;28;20198;-86
2022/04/10 00:33:55;;;;;;;8.43;2.67;;;2.60;99.90;;;;;;5036156;28;20753;-85
2022/04/10 00:36:20;;;;;;;7.97;2.20;;;2.50;99.90;;;;;;5036505;28;20158;-85
2022/04/10 00:38:46;;;;;;;6.80;2.20;;;2.40;99.90;;;;;;5029175;22;20220;-81
2022/04/10 00:41:12;;;;;;;5.57;2.50;;;2.40;99.90;;;;;;5034136;28;20173;-82
2022/04/10 00:43:39;;;;;;;9.23;2.33;;;2.50;99.90;;;;;;5035616;28;20204;-82
2022/04/10 00:46:05;;;;;;;9.70;2.70;;;2.50;99.90;;;;;;5017776;28;20174;-82
2022/04/10 00:48:31;;;;;;;7.33;2.27;;;2.50;99.90;;;;;;5017452;28;20220;-82
2022/04/10 00:53:42;;;;;;;9.70;2.30;;;2.60;99.90;;;;;;5076143;22;20235;-76
2022/04/10 00:56:08;;;;;;;11.50;2.50;;;2.50;99.90;;;;;;5053457;28;20175;-77
2022/04/10 00:58:34;;;;;;;7.43;2.37;;;2.50;99.90;;;;;;5053311;28;20221;-78
2022/04/10 01:01:00;;;;;;;10.37;2.43;;;2.50;99.90;;;;;;5052386;28;20192;-78
2022/04/10 01:03:25;;;;;;;7.43;2.70;;;2.40;99.90;;;;;;5035091;28;20207;-78
2022/04/10 01:05:51;;;;;;;7.60;2.63;;;2.40;99.90;;;;;;5053113;28;20294;-78
2022/04/10 01:08:17;;;;;;;12.93;3.30;;;2.40;99.90;;;;;;5053317;28;20245;-78
2022/04/10 01:10:42;;;;;;;13.20;2.63;;;2.40;99.90;;;;;;5053419;28;20188;-78
2022/04/10 01:13:09;;;;;;;9.50;2.30;;;2.30;99.90;;;;;;5052671;28;20545;-77
2022/04/10 01:15:36;;;;;;;4.87;2.33;;;2.30;99.90;;;;;;5053439;28;20710;-77
2022/04/10 01:18:03;;;;;;;14.40;2.73;;;2.30;99.90;;;;;;5035629;28;20176;-77
2022/04/10 01:20:29;;;;;;;7.43;2.03;;;2.30;99.90;;;;;;5035991;28;20597;-77
2022/04/10 01:22:55;;;;;;;9.00;2.60;;;2.30;99.90;;;;;;5052598;28;20233;-78
2022/04/10 01:25:21;;;;;;;6.93;2.37;;;2.30;99.90;;;;;;5035132;28;20171;-78
2022/04/10 01:27:47;;;;;;;7.40;2.63;;;2.30;99.90;;;;;;5032740;28;20269;-77
2022/04/10 01:30:14;;;;;;;13.93;3.10;;;2.20;99.90;;;;;;5053295;28;20189;-78
2022/04/10 01:32:39;;;;;;;12.03;2.53;;;2.20;99.90;;;;;;5034995;28;20172;-78
2022/04/10 01:35:06;;;;;;;13.47;2.70;;;2.20;99.90;;;;;;5053296;28;20180;-77
2022/04/10 01:37:34;;;;;;;8.97;2.60;;;2.20;99.90;;;;;;5053044;28;20170;-78
2022/04/10 01:39:59;;;;;;;13.60;3.77;;;2.20;99.90;;;;;;5032911;28;20261;-78
2022/04/10 01:42:25;;;;;;;4.07;2.07;;;2.10;99.90;;;;;;5051786;28;20259;-77
2022/04/10 01:44:51;;;;;;;7.90;2.60;;;2.20;99.90;;;;;;5031933;28;20221;-77
2022/04/10 01:47:16;;;;;;;8.40;2.43;;;2.10;99.90;;;;;;5052630;28;20290;-78
2022/04/10 01:49:42;;;;;;;9.40;2.60;;;2.20;99.90;;;;;;5052727;28;20281;-78
2022/04/10 01:52:08;;;;;;;5.87;2.67;;;2.20;99.90;;;;;;5052166;28;20235;-77
2022/04/10 01:54:34;;;;;;;12.30;3.30;;;2.10;99.90;;;;;;5052943;28;20224;-79
2022/04/10 01:56:59;;;;;;;17.53;3.10;;;2.10;99.90;;;;;;5053690;28;20186;-79
2022/04/10 01:59:28;;;;;;;7.37;2.73;;;2.20;99.90;;;;;;5034304;28;20228;-79
2022/04/10 02:01:54;;;;;;;14.20;2.93;;;2.10;99.90;;;;;;5051487;28;20176;-77
2022/04/10 02:04:20;;;;;;;13.73;2.90;;;2.00;99.90;;;;;;5051753;28;20548;-78
2022/04/10 02:06:46;;;;;;;15.50;2.97;;;2.10;99.90;;;;;;5052011;28;20211;-77
2022/04/10 02:09:11;;;;;;;13.47;3.00;;;2.10;99.90;;;;;;5034485;28;20168;-77
2022/04/10 02:11:37;;;;;;;8.70;3.30;;;2.10;99.90;;;;;;5051544;28;20186;-78
2022/04/10 02:14:03;;;;;;;11.50;3.00;;;2.00;99.90;;;;;;5034168;28;20179;-77
2022/04/10 02:16:28;;;;;;;10.50;3.00;;;2.00;99.90;;;;;;5052031;28;20637;-77
2022/04/10 02:18:54;;;;;;;14.60;3.20;;;1.90;99.90;;;;;;5053056;28;20182;-78
2022/04/10 02:21:19;;;;;;;7.60;3.53;;;1.90;99.90;;;;;;5052080;28;20187;-78
2022/04/10 02:23:45;;;;;;;9.00;3.00;;;1.90;99.90;;;;;;5052631;28;20687;-78
2022/04/10 02:26:12;;;;;;;14.57;2.93;;;1.90;99.90;;;;;;5034770;28;20647;-78
2022/04/10 02:28:38;;;;;;;16.07;3.33;;;1.90;99.90;;;;;;5049879;28;20566;-79
2022/04/10 02:31:04;;;;;;;10.50;2.80;;;1.90;99.90;;;;;;5052065;28;20680;-79
2022/04/10 02:33:32;;;;;;;10.30;2.83;;;1.90;99.90;;;;;;5052577;28;20251;-78
2022/04/10 02:35:57;;;;;;;16.37;3.40;;;1.90;99.90;;;;;;5052364;28;20168;-78
2022/04/10 02:38:23;;;;;;;12.53;3.60;;;1.80;99.90;;;;;;5052315;28;20248;-78
2022/04/10 02:40:48;;;;;;;8.83;3.10;;;1.80;99.90;;;;;;5049803;28;20202;-77
2022/04/10 02:43:14;;;;;;;9.40;3.30;;;1.80;99.90;;;;;;5031235;28;20204;-78
2022/04/10 02:45:41;;;;;;;11.90;3.20;;;1.80;99.90;;;;;;5034177;28;20184;-78
2022/04/10 02:48:07;;;;;;;9.73;3.33;;;1.70;99.90;;;;;;5052122;28;20203;-78
2022/04/10 02:50:33;;;;;;;8.37;3.27;;;1.70;99.90;;;;;;5052227;28;20204;-78
2022/04/10 02:52:59;;;;;;;12.30;3.00;;;1.80;99.90;;;;;;5033443;28;20238;-79
2022/04/10 02:55:24;;;;;;;12.23;3.60;;;1.70;99.90;;;;;;5051895;28;20875;-79
2022/04/10 02:57:50;;;;;;;7.80;2.70;;;1.70;99.90;;;;;;5034349;28;20305;-79
2022/04/10 03:00:16;;;;;;;12.30;3.33;;;1.60;99.90;;;;;;5052150;28;20782;-79
2022/04/10 03:02:41;;;;;;;7.93;3.03;;;1.70;99.90;;;;;;5051580;28;20168;-78
2022/04/10 03:05:08;;;;;;;14.63;3.60;;;1.70;99.90;;;;;;5051429;28;20599;-76
2022/04/10 03:07:34;;;;;;;10.30;3.13;;;1.60;99.90;;;;;;5051439;28;20695;-77
2022/04/10 03:09:59;;;;;;;11.27;3.77;;;1.60;99.90;;;;;;5051333;28;20248;-77
2022/04/10 03:12:25;;;;;;;18.50;3.73;;;1.60;99.90;;;;;;5051135;28;20640;-77
2022/04/10 03:14:50;;;;;;;10.40;3.67;;;1.60;99.90;;;;;;5033520;28;20171;-77
2022/04/10 03:17:16;;;;;;;8.37;3.53;;;1.50;99.90;;;;;;5033698;28;20639;-77
2022/04/10 03:19:41;;;;;;;8.73;3.40;;;1.50;99.90;;;;;;5051674;28;21013;-78
2022/04/10 03:22:07;;;;;;;16.93;3.70;;;1.50;99.90;;;;;;5051081;28;20672;-78
2022/04/10 03:24:32;;;;;;;16.30;4.30;;;1.50;99.90;;;;;;5052867;28;20686;-78
2022/04/10 03:26:58;;;;;;;15.63;4.03;;;1.50;99.90;;;;;;5055460;28;20221;-78
2022/04/10 03:29:23;;;;;;;17.70;4.37;;;1.50;99.90;;;;;;5055281;28;20211;-78
2022/04/10 03:31:49;;;;;;;12.90;4.40;;;1.50;99.90;;;;;;5054952;28;20227;-78
2022/04/10 03:34:15;;;;;;;11.43;4.33;;;1.50;99.90;;;;;;5055379;28;20222;-77
2022/04/10 03:36:40;;;;;;;9.47;4.47;;;1.50;99.90;;;;;;5055326;28;20254;-78
2022/04/10 03:39:06;;;;;;;15.80;5.33;;;1.60;99.90;;;;;;5055410;28;20655;-77
2022/04/10 03:41:31;;;;;;;17.80;4.83;;;1.60;99.90;;;;;;5053141;28;20181;-78
2022/04/10 03:43:57;;;;;;;14.60;5.17;;;1.60;99.90;;;;;;5034595;28;20171;-78
2022/04/10 03:46:23;;;;;;;25.50;5.10;;;1.60;99.90;;;;;;5055120;28;20174;-79
2022/04/10 03:48:49;;;;;;;16.67;5.13;;;1.60;99.90;;;;;;5037208;28;20763;-78
2022/04/10 03:51:15;;;;;;;12.73;4.57;;;1.50;99.90;;;;;;5054203;28;20667;-78
2022/04/10 03:53:40;;;;;;;17.30;4.83;;;1.40;99.90;;;;;;5054666;28;20179;-78
2022/04/10 03:56:06;;;;;;;15.43;5.27;;;1.50;99.90;;;;;;5054681;28;20168;-77
2022/04/10 03:58:32;;;;;;;13.70;4.93;;;1.60;99.90;;;;;;5054853;28;20172;-78
2022/04/10 04:00:58;;;;;;;15.43;4.67;;;1.50;99.90;;;;;;5054562;28;20195;-78
2022/04/10 04:03:23;;;;;;;13.80;4.73;;;1.50;99.90;;;;;;5054433;28;20698;-77
2022/04/10 04:05:49;;;;;;;16.53;5.37;;;1.50;99.90;;;;;;5036661;28;20177;-77
2022/04/10 04:08:15;;;;;;;18.07;4.67;;;1.50;99.90;;;;;;5036435;28;20194;-77
2022/04/10 04:10:41;;;;;;;15.47;4.87;;;1.50;99.90;;;;;;5054368;28;20179;-78
2022/04/10 04:13:06;;;;;;;17.53;5.17;;;1.50;99.90;;;;;;5054048;28;20513;-77
2022/04/10 04:15:32;;;;;;;23.10;5.03;;;1.50;99.90;;;;;;5054208;28;20223;-78
2022/04/10 04:17:58;;;;;;;13.43;4.70;;;1.50;99.90;;;;;;5054259;28;20709;-78
2022/04/10 04:20:23;;;;;;;18.97;5.00;;;1.50;99.90;;;;;;5054321;28;20240;-78
2022/04/10 04:22:49;;;;;;;22.53;5.17;;;1.50;99.90;;;;;;5053981;28;20238;-79
2022/04/10 04:25:15;;;;;;;16.33;5.40;;;1.50;99.90;;;;;;5036176;28;20186;-77
2022/04/10 04:27:40;;;;;;;22.90;5.60;;;1.60;99.90;;;;;;5054064;28;20200;-77
2022/04/10 04:30:07;;;;;;;15.97;4.53;;;1.50;99.90;;;;;;5036151;28;20214;-78
2022/04/10 04:32:32;;;;;;;16.50;4.90;;;1.60;99.90;;;;;;5053674;28;20168;-77
2022/04/10 04:34:58;;;;;;;12.57;4.63;;;1.50;99.90;;;;;;5053709;28;20172;-78
2022/04/10 04:37:23;;;;;;;18.20;5.00;;;1.50;99.90;;;;;;5052591;28;20186;-77
2022/04/10 04:39:49;;;;;;;15.27;4.77;;;1.40;99.90;;;;;;5034793;28;20202;-77
2022/04/10 04:42:15;;;;;;;12.67;4.90;;;1.40;99.90;;;;;;5052947;28;20188;-77
2022/04/10 04:44:40;;;;;;;19.53;5.40;;;1.50;99.90;;;;;;5050677;28;20180;-77
2022/04/10 04:47:06;;;;;;;13.17;5.20;;;1.50;99.90;;;;;;5053524;28;20198;-76
2022/04/10 04:49:32;;;;;;;23.33;5.43;;;1.50;99.90;;;;;;5053737;28;20176;-77
2022/04/10 04:51:57;;;;;;;28.17;5.90;;;1.40;99.90;;;;;;5052770;28;20172;-77
2022/04/10 04:54:23;;;;;;;16.63;5.13;;;1.40;99.90;;;;;;5035310;28;20186;-77
2022/04/10 04:56:48;;;;;;;15.60;4.80;;;1.30;99.90;;;;;;5053488;28;20643;-77
2022/04/10 04:59:14;;;;;;;18.23;4.80;;;1.30;99.90;;;;;;5035489;28;20175;-77
2022/04/10 05:01:43;;;;;;;13.87;4.47;;;1.30;99.90;;;;;;5034766;28;20598;-77
2022/04/10 05:04:10;;;;;;;13.13;5.37;;;1.40;99.90;;;;;;5053287;28;20580;-78
2022/04/10 05:06:36;;;;;;;17.97;5.27;;;1.40;99.90;;;;;;5035077;28;20170;-77
2022/04/10 05:09:02;;;;;;;14.27;4.50;;;1.40;99.90;;;;;;5053241;28;20300;-77
2022/04/10 05:11:28;;;;;;;14.67;4.57;;;1.40;99.90;;;;;;5034438;28;20237;-77
2022/04/10 05:13:53;;;;;;;20.63;4.97;;;1.30;99.90;;;;;;5052981;28;20161;-76
2022/04/10 05:16:19;;;;;;;15.33;4.70;;;1.30;99.90;;;;;;5052858;28;20163;-76
2022/04/10 05:18:44;;;;;;;10.00;4.27;;;1.30;99.90;;;;;;5035126;28;20181;-76
2022/04/10 05:21:10;;;;;;;21.77;6.00;;;1.30;99.90;;;;;;5052278;28;20203;-78
2022/04/10 05:23:36;;;;;;;13.17;5.33;;;1.30;99.90;;;;;;5052727;28;20172;-76
2022/04/10 05:26:02;;;;;;;19.03;4.60;;;1.30;99.90;;;;;;5034691;28;20210;-76
2022/04/10 05:28:28;;;;;;;13.73;4.90;;;1.30;99.90;;;;;;5052685;28;20195;-76
2022/04/10 05:30:54;;;;;;;20.17;5.70;;;1.40;99.90;;;;;;5034743;28;20198;-76
2022/04/10 05:33:19;;;;;;;17.53;6.00;;;1.50;99.90;;;;;;5052031;28;20548;-78
2022/04/10 05:35:47;;;;;;;20.53;5.43;;;1.60;99.90;;;;;;5052470;28;20172;-78
2022/04/10 05:38:12;;;;;;;14.03;5.50;;;1.60;99.90;;;;;;5052030;28;20176;-78
2022/04/10 05:40:38;;;;;;;14.43;5.10;;;1.70;99.90;;;;;;5028962;28;20196;-79
2022/04/10 05:43:04;;;;;;;14.67;5.97;;;1.90;99.90;;;;;;5041116;28;20200;-77
2022/04/10 05:45:29;;;;;;;13.30;4.63;;;2.10;99.90;;;;;;5025186;28;20208;-76
2022/04/10 05:47:55;;;;;;;14.13;5.30;;;2.20;99.90;;;;;;5040870;28;20694;-77
2022/04/10 05:50:20;;;;;;;9.90;4.30;;;2.30;99.90;;;;;;5034009;28;20216;-78
2022/04/10 05:52:48;;;;;;;12.47;4.80;;;2.50;99.90;;;;;;5048138;28;20226;-78
2022/04/10 05:55:15;;;;;;;11.67;4.27;;;2.70;99.90;;;;;;5048960;28;20212;-76
2022/04/10 05:57:41;;;;;;;12.90;4.40;;;2.90;99.90;;;;;;5033946;28;20308;-78
2022/04/10 06:00:13;;;;;;;11.00;3.73;;;3.20;99.90;;;;;;5051271;28;20206;-77
2022/04/10 06:02:39;;;;;;;12.00;3.97;;;3.40;99.90;;;;;;5049098;28;20177;-76
2022/04/10 06:05:06;;;;;;;14.80;4.40;;;3.60;99.90;;;;;;5051381;28;20243;-76
2022/04/10 06:07:31;;;;;;;12.50;4.27;;;3.90;99.90;;;;;;5051324;28;20215;-76
2022/04/10 06:09:58;;;;;;;13.27;3.83;;;3.90;99.90;;;;;;5042052;28;20190;-77
2022/04/10 06:12:24;;;;;;;11.77;3.73;;;4.20;99.90;;;;;;5041464;28;20198;-76
2022/04/10 06:14:50;;;;;;;10.00;4.00;;;4.40;99.90;;;;;;5040680;28;20650;-78
2022/04/10 06:17:15;;;;;;;9.10;4.00;;;4.70;99.90;;;;;;5051834;28;20188;-78
2022/04/10 06:19:41;;;;;;;9.63;3.93;;;4.70;99.90;;;;;;5052123;28;20198;-78
2022/04/10 06:22:08;;;;;;;12.27;3.63;;;4.90;99.90;;;;;;5051109;28;20173;-78
2022/04/10 06:24:34;;;;;;;9.30;3.90;;;5.10;99.90;;;;;;5048653;28;20176;-78
2022/04/10 06:27:00;;;;;;;12.87;3.63;;;5.30;99.90;;;;;;5034181;28;20216;-78
2022/04/10 06:29:25;;;;;;;11.57;3.63;;;5.60;99.90;;;;;;5023483;28;20203;-77
2022/04/10 06:31:51;;;;;;;12.23;4.07;;;5.70;99.90;;;;;;5034587;28;20174;-77
2022/04/10 06:34:16;;;;;;;7.23;3.30;;;6.10;99.90;;;;;;5032015;28;20172;-78
2022/04/10 06:36:42;;;;;;;11.50;3.93;;;6.20;99.90;;;;;;5030132;28;20181;-78
2022/04/10 06:39:09;;;;;;;7.30;3.13;;;6.40;99.90;;;;;;5029075;28;20171;-78
2022/04/10 06:41:35;;;;;;;8.70;3.40;;;6.80;99.90;;;;;;5013629;28;20228;-81
2022/04/10 06:44:01;;;;;;;10.23;3.47;;;6.70;99.90;;;;;;5015468;28;20574;-77
2022/04/10 06:46:26;;;;;;;9.43;3.00;;;7.00;99.90;;;;;;5031708;28;20170;-78
2022/04/10 06:48:53;;;;;;;7.90;2.90;;;7.30;99.90;;;;;;5031463;28;20236;-75
2022/04/10 06:51:19;;;;;;;8.23;3.27;;;7.00;99.90;;;;;;5031750;28;20184;-78
2022/04/10 06:53:45;;;;;;;8.27;2.57;;;7.40;99.90;;;;;;5041759;23;20226;-83
2022/04/10 06:56:11;;;;;;;5.83;2.70;;;7.70;99.90;;;;;;5074230;28;20176;-82
2022/04/10 06:58:36;;;;;;;7.10;2.70;;;7.70;99.90;;;;;;5073155;28;20231;-81
2022/04/10 07:01:02;;;;;;;9.83;3.10;;;7.90;99.90;;;;;;5075906;28;20609;-81
2022/04/10 07:03:28;;;;;;;8.83;3.23;;;8.10;99.90;;;;;;5077615;28;20656;-80
2022/04/10 07:05:54;;;;;;;8.00;2.83;;;8.40;99.90;;;;;;5076931;28;20200;-80
2022/04/10 07:08:19;;;;;;;11.53;2.47;;;8.30;99.90;;;;;;5077258;28;20226;-81
2022/04/10 07:10:45;;;;;;;5.90;2.17;;;8.50;99.90;;;;;;5076882;28;20176;-80
2022/04/10 07:13:14;;;;;;;7.17;2.40;;;8.60;99.90;;;;;;5057897;28;20176;-80
2022/04/10 07:15:41;;;;;;;8.57;2.37;;;9.00;99.90;;;;;;5076733;28;20169;-80
2022/04/10 07:18:07;;;;;;;5.57;2.47;;;8.90;99.90;;;;;;5059337;28;20183;-81
2022/04/10 07:20:33;;;;;;;7.90;2.80;;;8.60;99.90;;;;;;5058993;28;20667;-80
2022/04/10 07:25:43;;;;;;;7.87;2.10;;;9.30;99.90;;;;;;5077269;28;20176;-81
2022/04/10 07:28:08;;;;;;;3.73;1.83;;;10.00;99.90;;;;;;5058560;28;20204;-81
2022/04/10 07:30:34;;;;;;;5.23;1.93;;;9.40;99.90;;;;;;5057819;28;20201;-80
2022/04/10 07:33:00;;;;;;;5.30;1.90;;;9.60;99.90;;;;;;5056884;28;20167;-79
2022/04/10 07:35:25;;;;;;;5.27;2.60;;;9.40;99.90;;;;;;5074716;28;20546;-79
2022/04/10 07:37:51;;;;;;;2.30;1.70;;;9.40;99.90;;;;;;5073107;28;20179;-79
2022/04/10 07:40:20;;;;;;;5.17;1.80;;;9.40;99.90;;;;;;5058310;28;20246;-79
2022/04/10 07:42:46;;;;;;;7.13;1.77;;;8.70;99.90;;;;;;5075534;28;20231;-79
2022/04/10 07:48:02;;;;;;;9.07;1.80;;;7.90;99.90;;;;;;5038683;28;20310;-79
2022/04/10 07:50:31;;;;;;;6.50;1.60;;;7.60;99.90;;;;;;5076011;28;20608;-79
2022/04/10 07:52:56;;;;;;;10.30;1.83;;;7.40;99.90;;;;;;5074179;28;20903;-79
2022/04/10 07:55:23;;;;;;;6.73;1.97;;;7.40;99.90;;;;;;5075563;28;20247;-79
2022/04/10 07:57:48;;;;;;;7.07;1.70;;;7.30;99.90;;;;;;5075831;28;20173;-79
2022/04/10 08:00:15;;;;;;;6.47;1.60;;;7.20;99.90;;;;;;5075605;28;20542;-80
2022/04/10 08:02:46;;;;;;;4.63;1.67;;;7.10;99.90;;;;;;5056603;28;20172;-79
2022/04/10 08:05:13;;;;;;;6.17;1.50;;;7.00;99.90;;;;;;5074446;28;20730;-79
2022/04/10 08:07:38;;;;;;;6.27;1.67;;;6.80;99.90;;;;;;5075650;28;20210;-79
2022/04/10 08:10:04;;;;;;;8.47;1.63;;;6.70;99.90;;;;;;5075064;28;20550;-80
2022/04/10 08:12:30;;;;;;;7.30;1.73;;;6.80;99.90;;;;;;5056489;28;20176;-79
2022/04/10 08:14:55;;;;;;;3.10;1.90;;;6.50;99.90;;;;;;5074854;28;20189;-79
2022/04/10 08:17:21;;;;;;;7.93;2.10;;;6.30;99.90;;;;;;5074705;28;20179;-80
2022/04/10 08:19:46;;;;;;;4.43;2.07;;;6.30;99.90;;;;;;5074954;28;20251;-79
2022/04/10 08:22:12;;;;;;;4.87;2.10;;;6.60;99.90;;;;;;5074189;28;20186;-79
2022/04/10 08:24:37;;;;;;;8.83;2.00;;;6.80;99.90;;;;;;5056516;28;20200;-79
2022/04/10 08:27:03;;;;;;;4.63;1.90;;;7.10;99.90;;;;;;5074710;28;20204;-79
2022/04/10 08:29:29;;;;;;;6.40;1.90;;;8.10;99.90;;;;;;5056568;28;20169;-79
2022/04/10 08:31:55;;;;;;;5.00;1.40;;;9.10;99.90;;;;;;5055162;28;20168;-82
2022/04/10 08:34:20;;;;;;;3.63;1.70;;;9.80;99.90;;;;;;5071689;28;20790;-81
2022/04/10 08:36:46;;;;;;;4.93;1.80;;;9.50;99.90;;;;;;5061611;28;20175;-81
2022/04/10 08:39:11;;;;;;;6.47;1.80;;;9.80;99.90;;;;;;5055817;28;20191;-81
2022/04/10 08:41:37;;;;;;;9.03;2.30;;;9.70;99.90;;;;;;5053554;28;20184;-81
2022/04/10 08:44:04;;;;;;;7.90;2.30;;;9.50;99.90;;;;;;5059733;28;20275;-81
2022/04/10 08:46:31;;;;;;;6.83;2.03;;;10.20;99.90;;;;;;5065439;28;20264;-80
2022/04/10 08:48:59;;;;;;;9.27;3.50;;;10.40;99.90;;;;;;5064049;28;20201;-81
2022/04/10 08:51:26;;;;;;;13.90;4.57;;;10.30;99.90;;;;;;5064842;28;20194;-81
2022/04/10 08:53:54;;;;;;;5.03;1.63;;;10.60;99.90;;;;;;5046586;28;20690;-80
2022/04/10 08:56:20;;;;;;;4.03;1.67;;;9.50;99.90;;;;;;5058690;28;20182;-82
2022/04/10 08:58:45;;;;;;;4.77;1.30;;;9.20;99.90;;;;;;5077796;28;20253;-80
2022/04/10 09:01:11;;;;;;;3.93;1.70;;;9.20;99.90;;;;;;5076544;28;20173;-80
2022/04/10 09:03:38;;;;;;;7.20;1.70;;;9.30;99.90;;;;;;5075921;28;20552;-79
2022/04/10 09:06:10;;;;;;;10.37;1.80;;;9.50;99.90;;;;;;5074501;28;20263;-80
2022/04/10 09:08:35;;;;;;;4.17;1.70;;;9.50;99.90;;;;;;5074940;28;20200;-80
2022/04/10 09:11:06;;;;;;;7.07;1.67;;;9.20;99.90;;;;;;5056142;28;20172;-81
2022/04/10 09:13:33;;;;;;;1.73;1.30;;;10.20;99.90;;;;;;5073270;28;20189;-81
2022/04/10 09:16:07;;;;;;;3.77;1.70;;;11.00;99.90;;;;;;5071428;28;20166;-80
2022/04/10 09:18:53;;;;;;;6.03;1.60;;;11.50;99.90;;;;;;5056146;28;20177;-80
2022/04/10 09:21:33;;;;;;;3.17;1.30;;;11.20;99.90;;;;;;5074215;28;20215;-80
2022/04/10 09:24:06;;;;;;;5.70;1.50;;;10.90;99.90;;;;;;5072591;28;20672;-80
2022/04/10 09:26:51;;;;;;;4.27;1.37;;;10.80;99.90;;;;;;5074775;28;20165;-80
2022/04/10 09:29:18;;;;;;;4.27;2.00;;;11.70;99.90;;;;;;5056117;28;20233;-80
2022/04/10 09:31:45;;;;;;;3.83;1.40;;;11.40;99.90;;;;;;5074389;28;20166;-80
2022/04/10 09:34:14;;;;;;;4.67;1.67;;;11.70;99.70;;;;;;5074203;28;20221;-80
2022/04/10 09:36:42;;;;;;;3.43;1.70;;;11.10;99.90;;;;;;5073020;28;20196;-81
2022/04/10 09:39:10;;;;;;;4.83;1.37;;;10.40;99.70;;;;;;5075096;28;20165;-80
2022/04/10 09:41:37;;;;;;;4.93;1.93;;;9.90;99.90;;;;;;5073950;28;20178;-80
2022/04/10 09:44:22;;;;;;;4.30;1.47;;;10.70;99.90;;;;;;5074556;28;20272;-80
2022/04/10 09:47:01;;;;;;;5.57;1.43;;;11.70;99.90;;;;;;5074506;28;20186;-80
2022/04/10 09:49:32;;;;;;;5.27;1.50;;;11.30;99.10;;;;;;5074275;28;20171;-80
2022/04/10 09:52:04;;;;;;;6.27;1.80;;;11.40;99.90;;;;;;5073809;28;20257;-80
2022/04/10 09:54:35;;;;;;;3.63;1.37;;;11.50;99.60;;;;;;5075268;28;20212;-80
2022/04/10 09:57:06;;;;;;;4.10;1.47;;;11.30;99.30;;;;;;5076470;28;20161;-80
2022/04/10 09:59:40;;;;;;;2.83;1.30;;;10.80;99.00;;;;;;5075661;28;20176;-80
2022/04/10 10:02:07;;;;;;;3.33;1.40;;;10.50;99.90;;;;;;5074460;28;20160;-80
2022/04/10 10:04:37;;;;;;;2.70;1.50;;;11.40;99.10;;;;;;5075045;28;20182;-80
2022/04/10 10:07:08;;;;;;;6.60;1.70;;;11.00;99.10;;;;;;5074608;28;20190;-80
2022/04/10 10:09:34;;;;;;;3.63;1.40;;;10.50;99.90;;;;;;5074633;28;20175;-80
2022/04/10 10:12:01;;;;;;;5.60;1.67;;;10.30;99.30;;;;;;5073852;28;20236;-80
2022/04/10 10:14:30;;;;;;;6.67;1.97;;;9.80;99.90;;;;;;5074110;28;20195;-80
2022/04/10 10:17:01;;;;;;;5.53;1.40;;;9.80;99.90;;;;;;5072130;28;20302;-80
2022/04/10 10:19:29;;;;;;;4.17;1.60;;;9.60;99.40;;;;;;5074266;28;20169;-80
2022/04/10 10:21:55;;;;;;;4.80;1.40;;;9.50;99.90;;;;;;5074150;28;20173;-80
2022/04/10 10:24:24;;;;;;;2.47;1.27;;;10.80;99.90;;;;;;5073955;28;20222;-80
2022/04/10 10:27:23;;;;;;;3.40;1.60;;;10.70;98.80;;;;;;5074553;28;20694;-80
2022/04/10 10:30:10;;;;;;;1.33;1.20;;;11.50;97.40;;;;;;5078383;28;20238;-80
2022/04/10 10:32:45;;;;;;;2.13;1.33;;;11.70;96.20;;;;;;5058013;28;20776;-80
2022/04/10 10:35:12;;;;;;;4.43;1.73;;;12.20;98.70;;;;;;5077647;28;20195;-80
2022/04/10 10:37:52;;;;;;;2.33;1.30;;;12.60;95.40;;;;;;5075945;28;20175;-80
2022/04/10 10:40:20;;;;;;;6.53;1.10;;;12.00;94.50;;;;;;5059028;28;20179;-80
2022/04/10 10:42:48;;;;;;;3.53;1.30;;;12.30;94.10;;;;;;5078811;28;20557;-80
2022/04/10 10:45:41;;;;;;;3.33;1.50;;;11.40;93.30;;;;;;5061699;28;20195;-80
2022/04/10 10:48:23;;;;;;;4.10;1.40;;;11.30;94.00;;;;;;5072977;28;20242;-80
2022/04/10 10:50:50;;;;;;;4.80;1.23;;;10.70;96.50;;;;;;5073091;28;20631;-80
2022/04/10 10:53:17;;;;;;;5.17;1.50;;;9.60;99.80;;;;;;5072391;28;20169;-80
2022/04/10 10:55:44;;;;;;;6.07;2.07;;;9.50;99.90;;;;;;5073305;28;20306;-80
2022/04/10 10:58:13;;;;;;;3.27;1.30;;;9.80;99.90;;;;;;5054471;28;20191;-80
2022/04/10 11:00:39;;;;;;;2.27;1.50;;;10.10;99.90;;;;;;5070280;28;20182;-79
2022/04/10 11:03:14;;;;;;;5.83;1.40;;;11.20;99.90;;;;;;5067940;28;20187;-79
2022/04/10 11:05:39;;;;;;;6.23;1.50;;;11.00;99.90;;;;;;5071925;28;20194;-79
2022/04/10 11:08:10;;;;;;;3.13;1.30;;;11.20;99.90;;;;;;5052623;28;20676;-79
2022/04/10 11:10:51;;;;;;;4.43;1.20;;;11.50;99.10;;;;;;5071242;28;20211;-79
2022/04/10 11:13:18;;;;;;;4.07;1.20;;;11.70;97.90;;;;;;5070532;28;20575;-79
2022/04/10 11:15:54;;;;;;;6.67;1.83;;;12.00;96.80;;;;;;5053047;28;20178;-79
2022/04/10 11:18:23;;;;;;;6.73;1.63;;;12.30;97.10;;;;;;5072015;28;20179;-79
2022/04/10 11:20:54;;;;;;;2.97;1.53;;;12.20;96.60;;;;;;5071768;28;20646;-79
2022/04/10 11:23:19;;;;;;;6.83;1.70;;;12.60;97.20;;;;;;5070117;28;20165;-79
2022/04/10 11:25:52;;;;;;;4.47;1.30;;;13.00;94.20;;;;;;5071395;28;20173;-79
2022/04/10 11:28:18;;;;;;;5.67;1.67;;;13.30;95.70;;;;;;5053551;28;20606;-79
2022/04/10 11:30:46;;;;;;;3.63;1.43;;;12.60;94.80;;;;;;5071146;28;20168;-80
2022/04/10 11:33:13;;;;;;;3.07;1.53;;;12.50;94.90;;;;;;5070943;28;20257;-80
2022/04/10 11:35:41;;;;;;;4.43;1.50;;;12.60;93.50;;;;;;5071977;28;20247;-79
2022/04/10 11:38:12;;;;;;;3.57;1.30;;;13.30;92.70;;;;;;5069233;28;20169;-80
2022/04/10 11:40:40;;;;;;;3.50;1.03;;;13.30;94.60;;;;;;5072119;28;20179;-79
2022/04/10 11:43:11;;;;;;;4.40;1.20;;;13.60;90.90;;;;;;5071290;28;20172;-79
2022/04/10 11:45:37;;;;;;;5.70;1.40;;;12.60;92.00;;;;;;5073003;28;20298;-79
2022/04/10 11:48:05;;;;;;;3.63;1.20;;;11.60;93.10;;;;;;5075720;28;20275;-79
2022/04/10 11:50:31;;;;;;;1.30;1.10;;;11.10;92.50;;;;;;5075210;28;20167;-79
2022/04/10 11:53:04;;;;;;;3.60;1.10;;;10.80;92.30;;;;;;5074832;28;20167;-79
2022/04/10 11:55:48;;;;;;;1.70;1.13;;;10.60;90.50;;;;;;5074989;28;20203;-79
2022/04/10 11:58:16;;;;;;;1.87;1.27;;;10.20;93.50;;;;;;5075553;28;20173;-79
2022/04/10 12:00:56;;;;;;;2.67;1.20;;;9.60;96.20;;;;;;5075054;28;20175;-79
2022/04/10 12:03:27;;;;;;;0.90;0.90;;;9.40;97.70;;;;;;5056655;28;20175;-79
2022/04/10 12:05:53;;;;;;;3.23;1.10;;;9.30;98.80;;;;;;5056071;28;20183;-79
2022/04/10 12:08:20;;;;;;;2.73;0.87;;;9.00;98.70;;;;;;5075663;28;20203;-79
2022/04/10 12:11:01;;;;;;;1.57;0.93;;;8.40;99.70;;;;;;5057217;28;20179;-79
2022/04/10 12:13:34;;;;;;;4.17;1.07;;;8.30;99.90;;;;;;5075142;28;20169;-79
2022/04/10 12:16:18;;;;;;;1.73;0.90;;;8.90;99.90;;;;;;5075772;28;20658;-79
2022/04/10 12:18:54;;;;;;;1.70;0.90;;;9.00;99.90;;;;;;5075489;28;20323;-79
2022/04/10 12:21:21;;;;;;;2.87;0.90;;;8.90;99.70;;;;;;5056813;28;20254;-79
2022/04/10 12:23:57;;;;;;;1.57;1.10;;;9.70;99.90;;;;;;5074785;28;20183;-79
2022/04/10 12:26:23;;;;;;;1.97;1.10;;;10.20;98.80;;;;;;5074783;28;20165;-79
2022/04/10 12:28:49;;;;;;;4.10;1.20;;;10.40;97.80;;;;;;5056914;28;20317;-78
2022/04/10 12:31:15;;;;;;;3.17;1.27;;;10.50;98.80;;;;;;5056659;28;20566;-79
2022/04/10 12:33:40;;;;;;;3.77;1.10;;;10.40;96.70;;;;;;5075269;28;20238;-79
2022/04/10 12:36:17;;;;;;;3.23;1.40;;;11.00;95.70;;;;;;5075019;28;20167;-79
2022/04/10 12:38:42;;;;;;;3.77;1.23;;;11.00;96.40;;;;;;5071055;28;20170;-79
2022/04/10 12:41:08;;;;;;;5.23;1.23;;;10.60;96.80;;;;;;5073854;28;20583;-79
2022/04/10 12:43:34;;;;;;;2.17;1.10;;;10.40;97.00;;;;;;5074657;28;20525;-79
2022/04/10 12:46:10;;;;;;;5.37;1.60;;;10.10;97.70;;;;;;5074138;28;20169;-79
2022/04/10 12:48:37;;;;;;;3.67;1.30;;;10.00;99.00;;;;;;5056026;28;20205;-79
2022/04/10 12:51:03;;;;;;;3.70;1.20;;;10.20;98.00;;;;;;5055639;28;20543;-79
2022/04/10 12:55:56;;;;;;;2.77;1.10;;;9.90;97.60;;;;;;5075176;22;20716;-79
2022/04/10 12:58:24;;;;;;;4.37;1.47;;;9.70;98.30;;;;;;5052364;28;20179;-79
2022/04/10 13:00:53;;;;;;;6.00;1.10;;;10.20;98.60;;;;;;5056815;28;20197;-80
2022/04/10 13:03:27;;;;;;;3.37;1.30;;;10.10;96.70;;;;;;5035465;28;20191;-81